Schneifelwetter: Wetterstation Hallschlag, 537 m . NN
Wetterdaten: Dienstag, 24.06.2008
Datum Zeit Temp. A. Temp. 2 Feuchte A. Luftdruck Regen Wind Richtung Richtung Sonnenschein Helligkeit T Regen Taupunkt Windchill
24.06.2008 00:01 12,2 C 10,6 C 73 % 1018 hPa 0,0 l/m 9,6 km/h (2 Bft) N-NO22.5 25 0 min 0 lux 0,00 min 7,5 C 10,2 C
24.06.2008 00:16 12,6 C 11,0 C 74 % 1018 hPa 0,0 l/m 15,8 km/h (3 Bft) N-NO22.5 20 0 min 0 lux 0,00 min 8,1 C 8,0 C
24.06.2008 00:31 12,7 C 11,3 C 74 % 1018 hPa 0,0 l/m 14,5 km/h (3 Bft) N-NO22.5 30 0 min 0 lux 0,00 min 8,2 C 8,6 C
24.06.2008 00:46 12,6 C 11,4 C 75 % 1019 hPa 0,0 l/m 18,2 km/h (3 Bft) N-NO22.5 30 0 min 0 lux 0,00 min 8,3 C 7,2 C
24.06.2008 01:01 12,2 C 11,0 C 74 % 1018 hPa 0,0 l/m 10,3 km/h (2 Bft) NO45 35 0 min 0 lux 0,00 min 7,7 C 9,9 C
24.06.2008 01:16 11,8 C 10,3 C 74 % 1018 hPa 0,0 l/m 7,5 km/h (2 Bft) NO22.5 40 0 min 0 lux 0,00 min 7,3 C 11,1 C
24.06.2008 01:31 11,2 C 9,5 C 75 % 1018 hPa 0,0 l/m 0,9 km/h (0 Bft) O-NO22.5 60 0 min 0 lux 0,00 min 6,9 C 11,2 C
24.06.2008 01:46 10,8 C 9,1 C 76 % 1019 hPa 0,0 l/m 0,6 km/h (0 Bft) NO 40 0 min 0 lux 0,00 min 6,7 C 10,8 C
24.06.2008 02:01 10,6 C 8,5 C 78 % 1019 hPa 0,0 l/m 5,7 km/h (1 Bft) N 10 0 min 0 lux 0,00 min 6,9 C 10,6 C
24.06.2008 02:16 10,4 C 8,0 C 78 % 1018 hPa 0,0 l/m 6,8 km/h (2 Bft) N-NO22.5 15 0 min 0 lux 0,00 min 6,7 C 10,1 C
24.06.2008 02:31 10,1 C 7,7 C 78 % 1019 hPa 0,0 l/m 0,0 km/h (0 Bft) N-NO 30 0 min 0 lux 0,00 min 6,4 C 10,1 C
24.06.2008 02:46 9,9 C 7,5 C 79 % 1019 hPa 0,0 l/m 0,0 km/h (0 Bft) N-NO 25 0 min 0 lux 0,00 min 6,4 C 9,9 C
24.06.2008 03:01 9,9 C 7,3 C 80 % 1019 hPa 0,0 l/m 7,4 km/h (2 Bft) N22.5 5 0 min 0 lux 0,00 min 6,6 C 9,2 C
24.06.2008 03:16 9,5 C 7,0 C 79 % 1019 hPa 0,0 l/m 4,1 km/h (1 Bft) N-NO22.5 25 0 min 0 lux 0,00 min 6,0 C 9,5 C
24.06.2008 03:31 9,3 C 6,8 C 81 % 1018 hPa 0,0 l/m 7,4 km/h (2 Bft) N22.5 10 0 min 0 lux 0,00 min 6,2 C 8,6 C
24.06.2008 03:46 9,2 C 6,9 C 81 % 1018 hPa 0,0 l/m 5,2 km/h (1 Bft) N22.5 5 0 min 0 lux 0,00 min 6,1 C 9,2 C
24.06.2008 04:01 8,9 C 6,7 C 82 % 1018 hPa 0,0 l/m 4,1 km/h (1 Bft) N 5 0 min 0 lux 0,00 min 6,0 C 8,9 C
24.06.2008 04:16 8,7 C 6,6 C 82 % 1018 hPa 0,0 l/m 2,2 km/h (1 Bft) N 355 0 min 0 lux 0,00 min 5,8 C 8,7 C
24.06.2008 04:31 8,6 C 6,5 C 83 % 1018 hPa 0,0 l/m 3,5 km/h (1 Bft) N 5 0 min 0 lux 0,00 min 5,9 C 8,6 C
24.06.2008 04:46 8,2 C 6,2 C 83 % 1018 hPa 0,0 l/m 2,4 km/h (1 Bft) N 5 0 min 0 lux 0,00 min 5,5 C 8,2 C
24.06.2008 05:01 8,0 C 6,1 C 84 % 1018 hPa 0,0 l/m 0,4 km/h (0 Bft) N 5 0 min 56 lux 0,00 min 5,5 C 8,0 C
24.06.2008 05:16 8,1 C 6,1 C 84 % 1018 hPa 0,0 l/m 4,6 km/h (1 Bft) N 10 0 min 255 lux 0,00 min 5,6 C 8,1 C
24.06.2008 05:31 7,9 C 6,2 C 86 % 1018 hPa 0,0 l/m 2,2 km/h (1 Bft) N 5 0 min 730 lux 0,00 min 5,7 C 7,9 C
24.06.2008 05:46 7,8 C 6,1 C 85 % 1018 hPa 0,0 l/m 0,6 km/h (0 Bft) N 360 0 min 2,36 klux 0,00 min 5,4 C 7,8 C
24.06.2008 06:01 8,1 C 6,3 C 88 % 1018 hPa 0,0 l/m 5,6 km/h (1 Bft) N22.5 5 0 min 5,48 klux 0,00 min 6,2 C 8,1 C
24.06.2008 06:16 8,8 C 6,8 C 88 % 1018 hPa 0,0 l/m 5,9 km/h (2 Bft) N 5 0 min 9,2 klux 0,00 min 6,9 C 8,8 C
24.06.2008 06:31 9,9 C 7,2 C 86 % 1018 hPa 0,0 l/m 2,1 km/h (1 Bft) N 360 0 min 13,4 klux 0,00 min 7,7 C 9,9 C
24.06.2008 06:47 12,0 C 7,8 C 80 % 1018 hPa 0,0 l/m 5,7 km/h (1 Bft) N 5 0 min 17,2 klux 0,00 min 8,7 C 12,0 C
24.06.2008 07:01 13,2 C 8,3 C 77 % 1018 hPa 0,0 l/m 5,4 km/h (1 Bft) N-NO22.5 25 0 min 21,8 klux 0,00 min 9,3 C 13,2 C
24.06.2008 07:16 14,0 C 8,9 C 74 % 1018 hPa 0,0 l/m 7,2 km/h (2 Bft) N22.5 5 0 min 25,4 klux 0,00 min 9,4 C 13,5 C
24.06.2008 07:31 15,0 C 10,6 C 72 % 1018 hPa 0,0 l/m 9,0 km/h (2 Bft) NO22.5 40 0 min 31,6 klux 0,00 min 10,0 C 13,6 C
24.06.2008 07:46 15,4 C 11,4 C 71 % 1018 hPa 0,0 l/m 7,0 km/h (2 Bft) N-NO 25 0 min 35,5 klux 0,00 min 10,2 C 15,1 C
24.06.2008 08:02 15,8 C 12,2 C 69 % 1018 hPa 0,0 l/m 12,7 km/h (3 Bft) O-NO45 70 0 min 38,9 klux 0,00 min 10,1 C 12,9 C
24.06.2008 08:17 15,8 C 13,1 C 68 % 1018 hPa 0,0 l/m 13,0 km/h (3 Bft) O-NO45 60 0 min 42,0 klux 0,00 min 9,9 C 12,8 C
24.06.2008 08:31 16,1 C 14,0 C 67 % 1018 hPa 0,0 l/m 17,0 km/h (3 Bft) O-NO22.5 60 0 min 45,8 klux 0,00 min 10,0 C 11,9 C
24.06.2008 08:46 16,7 C 15,1 C 66 % 1018 hPa 0,0 l/m 18,1 km/h (3 Bft) O-NO45 65 0 min 49,9 klux 0,00 min 10,3 C 12,4 C
24.06.2008 09:01 17,5 C 16,1 C 65 % 1018 hPa 0,0 l/m 15,1 km/h (3 Bft) O45 80 0 min 53,2 klux 0,00 min 10,8 C 14,2 C
24.06.2008 09:16 18,4 C 17,0 C 63 % 1018 hPa 0,0 l/m 13,8 km/h (3 Bft) O67.5 80 0 min 57,1 klux 0,00 min 11,2 C 15,6 C
24.06.2008 09:31 19,1 C 17,6 C 59 % 1018 hPa 0,0 l/m 17,5 km/h (3 Bft) O45 80 15 min 60,3 klux 0,00 min 10,9 C 15,6 C
24.06.2008 09:47 19,4 C 18,2 C 59 % 1018 hPa 0,0 l/m 16,9 km/h (3 Bft) O22.5 80 16 min 64,0 klux 0,00 min 11,2 C 16,1 C
24.06.2008 10:02 19,8 C 18,5 C 55 % 1018 hPa 0,0 l/m 20,6 km/h (4 Bft) O-NO45 70 15 min 66,5 klux 0,00 min 10,5 C 15,8 C
24.06.2008 10:17 19,6 C 18,9 C 57 % 1018 hPa 0,0 l/m 20,2 km/h (4 Bft) O-NO45 70 15 min 69,5 klux 0,00 min 10,8 C 15,7 C
24.06.2008 10:31 19,8 C 19,4 C 55 % 1017 hPa 0,0 l/m 23,2 km/h (4 Bft) O-NO45 70 14 min 73,0 klux 0,00 min 10,5 C 15,4 C
24.06.2008 10:46 19,8 C 20,0 C 55 % 1017 hPa 0,0 l/m 20,6 km/h (4 Bft) O-NO45 65 15 min 75,5 klux 0,00 min 10,5 C 15,8 C
24.06.2008 11:01 20,4 C 20,3 C 55 % 1017 hPa 0,0 l/m 21,4 km/h (4 Bft) O67.5 85 15 min 78,5 klux 0,00 min 11,1 C 16,5 C
24.06.2008 11:16 20,7 C 21,2 C 53 % 1017 hPa 0,0 l/m 28,0 km/h (4 Bft) O-NO45 70 15 min 81,0 klux 0,00 min 10,8 C 15,9 C
24.06.2008 11:31 20,6 C 21,9 C 54 % 1017 hPa 0,0 l/m 21,3 km/h (4 Bft) O-NO22.5 65 15 min 83,9 klux 0,00 min 11,0 C 16,8 C
24.06.2008 11:47 21,0 C 22,7 C 54 % 1017 hPa 0,0 l/m 18,6 km/h (3 Bft) O-NO22.5 60 16 min 85,6 klux 0,00 min 11,3 C 17,7 C
24.06.2008 12:02 21,6 C 23,3 C 52 % 1017 hPa 0,0 l/m 17,2 km/h (3 Bft) O-NO45 70 15 min 87,1 klux 0,00 min 11,3 C 18,8 C
24.06.2008 12:16 21,2 C 23,8 C 53 % 1017 hPa 0,0 l/m 17,5 km/h (3 Bft) NO22.5 35 14 min 88,5 klux 0,00 min 11,2 C 18,2 C
24.06.2008 12:31 21,0 C 24,4 C 53 % 1017 hPa 0,0 l/m 17,6 km/h (3 Bft) N-NO45 20 15 min 93,5 klux 0,00 min 11,0 C 17,9 C
24.06.2008 12:46 21,2 C 24,6 C 55 % 1017 hPa 0,0 l/m 15,7 km/h (3 Bft) O-NO45 65 15 min 96,5 klux 0,00 min 11,8 C 18,6 C
24.06.2008 13:01 21,8 C 25,0 C 54 % 1017 hPa 0,0 l/m 13,5 km/h (3 Bft) NO45 45 15 min 95,1 klux 0,00 min 12,1 C 19,8 C
24.06.2008 13:16 21,8 C 25,8 C 54 % 1017 hPa 0,0 l/m 17,0 km/h (3 Bft) O-NO22.5 65 15 min 92,4 klux 0,00 min 12,1 C 19,0 C
24.06.2008 13:32 22,0 C 26,2 C 52 % 1017 hPa 0,0 l/m 17,0 km/h (3 Bft) O-NO45 60 16 min 93,1 klux 0,00 min 11,7 C 19,3 C
24.06.2008 13:47 22,0 C 26,5 C 52 % 1016 hPa 0,0 l/m 17,1 km/h (3 Bft) N-NO67.5 15 15 min 93,0 klux 0,00 min 11,7 C 19,3 C
24.06.2008 14:02 22,2 C 27,7 C 53 % 1016 hPa 0,0 l/m 14,9 km/h (3 Bft) NO45 55 15 min 93,0 klux 0,00 min 12,2 C 19,9 C
24.06.2008 14:16 22,4 C 28,9 C 53 % 1016 hPa 0,0 l/m 13,1 km/h (3 Bft) NO22.5 55 14 min 94,2 klux 0,00 min 12,3 C 20,5 C
24.06.2008 14:31 22,8 C 29,8 C 51 % 1016 hPa 0,0 l/m 15,1 km/h (3 Bft) NO45 50 15 min 95,0 klux 0,00 min 12,1 C 20,6 C
24.06.2008 14:46 22,9 C 31,2 C 51 % 1016 hPa 0,0 l/m 16,3 km/h (3 Bft) N45 10 15 min 98,4 klux 0,00 min 12,2 C 20,5 C
24.06.2008 15:01 23,3 C 32,5 C 52 % 1016 hPa 0,0 l/m 10,8 km/h (2 Bft) N-NO22.5 30 15 min 95,7 klux 0,00 min 12,9 C 22,1 C
24.06.2008 15:16 23,6 C 32,6 C 51 % 1016 hPa 0,0 l/m 13,8 km/h (3 Bft) N-NO45 25 15 min 95,8 klux 0,00 min 12,9 C 21,8 C
24.06.2008 15:32 24,2 C 33,1 C 51 % 1016 hPa 0,0 l/m 13,8 km/h (3 Bft) S-SO22.5 150 16 min 96,7 klux 0,00 min 13,4 C 22,5 C
24.06.2008 15:47 24,6 C 33,7 C 50 % 1016 hPa 0,0 l/m 10,3 km/h (2 Bft) S-SO22.5 150 15 min 95,5 klux 0,00 min 13,5 C 23,7 C
24.06.2008 16:01 25,0 C 33,5 C 50 % 1016 hPa 0,0 l/m 12,8 km/h (3 Bft) S-SO45 160 14 min 95,4 klux 0,00 min 13,8 C 23,7 C
24.06.2008 16:16 25,0 C 32,5 C 51 % 1015 hPa 0,0 l/m 11,3 km/h (2 Bft) S-SO22.5 165 15 min 88,6 klux 0,00 min 14,1 C 23,9 C
24.06.2008 16:31 25,2 C 31,8 C 51 % 1015 hPa 0,0 l/m 14,1 km/h (3 Bft) W22.5 260 15 min 95,3 klux 0,00 min 14,3 C 23,7 C
24.06.2008 16:46 25,1 C 30,1 C 54 % 1016 hPa 0,0 l/m 11,5 km/h (2 Bft) W-SW22.5 255 15 min 90,0 klux 0,00 min 15,1 C 24,0 C
24.06.2008 17:01 24,0 C 30,2 C 57 % 1016 hPa 0,0 l/m 9,2 km/h (2 Bft) S45 190 15 min 79,7 klux 0,00 min 14,9 C 23,2 C
24.06.2008 17:17 24,3 C 31,7 C 55 % 1015 hPa 0,0 l/m 15,2 km/h (3 Bft) W-SW67.5 240 16 min 72,9 klux 0,00 min 14,7 C 22,4 C
24.06.2008 17:32 24,9 C 33,1 C 53 % 1015 hPa 0,0 l/m 17,0 km/h (3 Bft) W22.5 260 15 min 75,0 klux 0,00 min 14,6 C 22,9 C
24.06.2008 17:47 25,2 C 33,4 C 52 % 1015 hPa 0,0 l/m 12,6 km/h (3 Bft) W-SW22.5 255 15 min 65,8 klux 0,00 min 14,6 C 23,9 C
24.06.2008 18:01 25,4 C 33,3 C 53 % 1015 hPa 0,0 l/m 13,0 km/h (3 Bft) W-SW45 250 14 min 63,9 klux 0,00 min 15,1 C 24,1 C
24.06.2008 18:16 25,6 C 33,0 C 52 % 1015 hPa 0,0 l/m 20,1 km/h (4 Bft) W-SW45 255 0 min 60,0 klux 0,00 min 15,0 C 23,4 C
24.06.2008 18:31 26,0 C 33,8 C 51 % 1015 hPa 0,0 l/m 9,0 km/h (2 Bft) W-SW22.5 250 0 min 55,9 klux 0,00 min 15,1 C 25,5 C
24.06.2008 18:46 25,7 C 31,7 C 52 % 1015 hPa 0,0 l/m 9,8 km/h (2 Bft) S-SW45 210 0 min 51,8 klux 0,00 min 15,1 C 25,0 C
24.06.2008 19:02 24,6 C 28,0 C 55 % 1015 hPa 0,0 l/m 15,3 km/h (3 Bft) W-SW22.5 255 0 min 29,2 klux 0,00 min 14,9 C 22,8 C
24.06.2008 19:17 24,3 C 27,2 C 57 % 1015 hPa 0,0 l/m 15,9 km/h (3 Bft) W22.5 260 0 min 36,3 klux 0,00 min 15,2 C 22,3 C
24.06.2008 19:32 24,3 C 26,2 C 58 % 1015 hPa 0,0 l/m 6,6 km/h (2 Bft) W-SW 245 0 min 19,9 klux 0,00 min 15,5 C 24,3 C
24.06.2008 19:46 24,7 C 28,1 C 58 % 1015 hPa 0,0 l/m 5,9 km/h (2 Bft) W-SW 250 0 min 31,8 klux 0,00 min 15,9 C 24,7 C
24.06.2008 20:01 24,9 C 27,0 C 56 % 1015 hPa 0,0 l/m 2,5 km/h (1 Bft) W-SW 250 0 min 21,6 klux 0,00 min 15,5 C 24,9 C
24.06.2008 20:16 24,4 C 25,4 C 58 % 1015 hPa 0,0 l/m 0,7 km/h (0 Bft) W-SW 250 0 min 12,0 klux 0,00 min 15,6 C 24,4 C
24.06.2008 20:31 23,8 C 24,1 C 58 % 1015 hPa 0,0 l/m 0,0 km/h (0 Bft) W-SW 250 0 min 5,63 klux 0,00 min 15,0 C 23,8 C
24.06.2008 20:47 22,9 C 23,2 C 59 % 1015 hPa 0,0 l/m 9,1 km/h (2 Bft) N-NO22.5 15 0 min 6,95 klux 0,00 min 14,5 C 22,1 C
24.06.2008 21:02 22,2 C 22,2 C 60 % 1015 hPa 0,0 l/m 7,6 km/h (2 Bft) N-NO 20 0 min 5,40 klux 0,00 min 14,1 C 21,8 C
24.06.2008 21:17 21,4 C 20,9 C 61 % 1015 hPa 0,0 l/m 9,9 km/h (2 Bft) N22.5 5 0 min 3,28 klux 0,00 min 13,6 C 20,2 C
24.06.2008 21:31 20,6 C 19,7 C 63 % 1015 hPa 0,0 l/m 10,3 km/h (2 Bft) N-NO22.5 15 0 min 3,02 klux 0,00 min 13,3 C 19,2 C
24.06.2008 21:46 19,7 C 18,5 C 65 % 1015 hPa 0,0 l/m 8,2 km/h (2 Bft) N22.5 10 0 min 1,20 klux 0,00 min 12,9 C 19,0 C
24.06.2008 22:01 19,1 C 17,7 C 67 % 1015 hPa 0,0 l/m 8,6 km/h (2 Bft) N22.5 360 0 min 480 lux 0,00 min 12,8 C 18,2 C
24.06.2008 22:16 18,5 C 17,2 C 68 % 1015 hPa 0,0 l/m 6,5 km/h (2 Bft) N 350 0 min 151 lux 0,00 min 12,5 C 18,5 C
24.06.2008 22:32 17,9 C 16,4 C 69 % 1015 hPa 0,0 l/m 0,0 km/h (0 Bft) N 355 0 min 39 lux 0,00 min 12,1 C 17,9 C
24.06.2008 22:47 17,2 C 15,6 C 70 % 1015 hPa 0,0 l/m 0,0 km/h (0 Bft) N 355 0 min 7 lux 0,00 min 11,7 C 17,2 C
24.06.2008 23:02 16,6 C 14,9 C 72 % 1015 hPa 0,0 l/m 0,0 km/h (0 Bft) N 355 0 min 0 lux 0,00 min 11,5 C 16,6 C
24.06.2008 23:16 16,1 C 14,6 C 74 % 1015 hPa 0,0 l/m 0,0 km/h (0 Bft) N 355 0 min 0 lux 0,00 min 11,5 C 16,1 C
24.06.2008 23:31 15,8 C 14,3 C 74 % 1015 hPa 0,0 l/m 0,0 km/h (0 Bft) N 355 0 min 0 lux 0,00 min 11,2 C 15,8 C
24.06.2008 23:46 15,5 C 14,0 C 76 % 1015 hPa 0,0 l/m 0,0 km/h (0 Bft) N 355 0 min 0 lux 0,00 min 11,3 C 15,5 C
_ Min-Zeit 05:46 05:01 15:47 16:16 - 02:31 - - - - - 05:46 00:46
Minimum _ 7,8 C 6,1 C 50 % 1015 hPa - 0,0 km/h (0 Bft) - - - - - 5,4 C 7,2 C
_ Max-Zeit 18:31 18:31 06:01 00:46 00:01 11:16 - - 09:47 14:46 00:01 19:46 18:31
Maximum _ 26,0 C 33,8 C 88 % 1019 hPa 0,0 l/m 28,0 km/h
O-NO (4 Bft)
- - 16 min 98,4 klux 0,00 min 15,9 C 25,5 C
Durchschnitt _ 17,8 C 18,8 C 65 % 1017 hPa #0,0 l/m 10,2 km/h (2 Bft) N - #8:45 h 39,2 klux #0 min. 10,8 C 16,3 C